createdAt,value
2023-04-26T00:01:54.213Z,4.60
2023-04-26T00:05:05.261Z,4.50
2023-04-26T00:08:09.409Z,4.40
2023-04-26T00:11:12.414Z,4.40
2023-04-26T00:14:18.726Z,4.90
2023-04-26T00:17:24.818Z,7.40
2023-04-26T00:20:27.963Z,4.97
2023-04-26T00:23:32.049Z,5.63
2023-04-26T00:26:35.433Z,4.80
2023-04-26T00:29:38.804Z,4.67
2023-04-26T00:32:43.709Z,5.47
2023-04-26T00:35:46.812Z,6.77
2023-04-26T00:38:49.914Z,6.17
2023-04-26T00:41:53.171Z,4.70
2023-04-26T00:45:03.700Z,5.57
2023-04-26T00:48:09.483Z,4.43
2023-04-26T00:51:13.769Z,4.90
2023-04-26T00:54:17.224Z,5.23
2023-04-26T00:57:20.262Z,5.83
2023-04-26T01:00:23.446Z,5.93
2023-04-26T01:03:28.363Z,4.67
2023-04-26T01:06:35.818Z,4.83
2023-04-26T01:09:42.155Z,4.80
2023-04-26T01:12:45.277Z,5.13
2023-04-26T01:15:49.714Z,4.67
2023-04-26T01:18:55.613Z,5.00
2023-04-26T01:21:58.614Z,4.77
2023-04-26T01:25:07.680Z,4.40
2023-04-26T01:28:10.671Z,4.40
2023-04-26T01:31:13.808Z,4.67
2023-04-26T01:34:17.656Z,4.97
2023-04-26T01:37:22.461Z,5.10
2023-04-26T01:40:27.060Z,4.00
2023-04-26T01:43:30.795Z,3.90
2023-04-26T01:46:33.851Z,4.50
2023-04-26T01:49:37.010Z,4.67
2023-04-26T01:52:40.019Z,4.47
2023-04-26T01:55:44.336Z,4.90
2023-04-26T01:58:50.696Z,4.23
2023-04-26T02:01:54.068Z,4.70
2023-04-26T02:04:57.211Z,4.87
2023-04-26T02:08:02.940Z,4.97
2023-04-26T02:11:07.411Z,4.80
2023-04-26T02:14:12.529Z,5.03
2023-04-26T02:17:16.358Z,5.37
2023-04-26T02:20:19.523Z,5.17
2023-04-26T02:23:24.611Z,4.83
2023-04-26T02:26:29.040Z,4.70
2023-04-26T02:29:43.680Z,4.17
2023-04-26T02:32:50.960Z,5.63
2023-04-26T02:36:00.151Z,5.33
2023-04-26T02:39:06.210Z,4.87
2023-04-26T02:42:11.699Z,5.13
2023-04-26T02:45:15.567Z,4.47
2023-04-26T02:48:19.257Z,4.33
2023-04-26T02:51:22.371Z,5.37
2023-04-26T02:54:28.586Z,4.80
2023-04-26T02:57:36.480Z,5.07
2023-04-26T03:00:39.817Z,4.80
2023-04-26T03:03:45.428Z,5.83
2023-04-26T03:06:48.874Z,4.40
2023-04-26T03:09:55.111Z,5.07
2023-04-26T03:12:59.610Z,5.03
2023-04-26T03:16:02.744Z,5.07
2023-04-26T03:19:05.897Z,4.77
2023-04-26T03:22:09.115Z,4.83
2023-04-26T03:25:13.266Z,6.43
2023-04-26T03:28:18.158Z,5.10
2023-04-26T03:31:21.992Z,5.10
2023-04-26T03:34:25.250Z,5.60
2023-04-26T03:37:28.470Z,5.47
2023-04-26T03:40:38.728Z,5.17
2023-04-26T03:43:43.402Z,5.87
2023-04-26T03:46:46.418Z,5.67
2023-04-26T03:49:49.795Z,6.97
2023-04-26T03:52:52.875Z,5.50
2023-04-26T03:55:56.892Z,5.80
2023-04-26T03:59:01.360Z,5.10
2023-04-26T04:02:04.968Z,5.50
2023-04-26T04:05:09.241Z,5.60
2023-04-26T04:08:13.882Z,6.63
2023-04-26T04:11:16.980Z,5.60
2023-04-26T04:14:21.406Z,6.77
2023-04-26T04:17:24.871Z,5.93
2023-04-26T04:20:28.593Z,5.23
2023-04-26T04:23:33.532Z,6.00
2023-04-26T04:26:39.315Z,6.30
2023-04-26T04:29:43.961Z,5.60
2023-04-26T04:32:47.416Z,5.20
2023-04-26T04:35:54.154Z,5.37
2023-04-26T04:39:11.332Z,5.57
2023-04-26T04:42:15.231Z,6.13
2023-04-26T04:45:22.644Z,6.20
2023-04-26T04:48:28.276Z,5.80
2023-04-26T04:51:32.090Z,7.33
2023-04-26T04:54:35.475Z,6.03
2023-04-26T04:57:42.634Z,5.43
2023-04-26T05:00:47.472Z,5.70
2023-04-26T05:04:02.194Z,5.63
2023-04-26T05:07:06.620Z,5.33
2023-04-26T05:10:12.236Z,5.83
2023-04-26T05:13:15.462Z,5.93
2023-04-26T05:16:19.855Z,5.00
2023-04-26T05:19:24.854Z,6.07
2023-04-26T05:22:28.807Z,5.40
2023-04-26T05:25:32.162Z,6.50
2023-04-26T05:28:44.004Z,6.67
2023-04-26T05:32:01.796Z,6.23
2023-04-26T05:35:17.693Z,7.50
2023-04-26T05:38:21.928Z,6.53
2023-04-26T05:41:25.086Z,6.63
2023-04-26T05:44:28.276Z,5.87
2023-04-26T05:47:33.358Z,6.63
2023-04-26T05:50:37.702Z,6.20
2023-04-26T05:53:42.604Z,5.20
2023-04-26T05:56:45.647Z,5.83
2023-04-26T05:59:48.757Z,5.73
2023-04-26T06:02:54.398Z,6.43
2023-04-26T06:05:58.112Z,5.50
2023-04-26T06:09:01.546Z,6.17
2023-04-26T06:12:05.572Z,6.17
2023-04-26T06:15:12.877Z,5.27
2023-04-26T06:18:17.733Z,4.97
2023-04-26T06:21:22.896Z,6.17
2023-04-26T06:24:26.127Z,5.90
2023-04-26T06:27:29.230Z,5.60
2023-04-26T06:30:32.231Z,5.53
2023-04-26T06:33:36.646Z,6.17
2023-04-26T06:36:39.735Z,6.73
2023-04-26T06:39:42.833Z,5.00
2023-04-26T06:42:46.040Z,4.63
2023-04-26T06:46:09.098Z,5.13
2023-04-26T06:49:13.482Z,6.30
2023-04-26T06:52:16.867Z,5.17
2023-04-26T06:55:20.045Z,5.23
2023-04-26T06:58:23.112Z,6.10
2023-04-26T07:01:26.406Z,5.13
2023-04-26T07:04:32.128Z,6.03
2023-04-26T07:07:35.250Z,6.00
2023-04-26T07:10:40.001Z,4.80
2023-04-26T07:13:43.020Z,4.90
2023-04-26T07:16:46.553Z,5.50
2023-04-26T07:19:55.537Z,6.03
2023-04-26T07:23:00.594Z,5.80
2023-04-26T07:26:04.730Z,5.30
2023-04-26T07:29:07.723Z,6.03
2023-04-26T07:32:11.218Z,5.20
2023-04-26T07:35:16.866Z,5.77
2023-04-26T07:38:20.686Z,5.20
2023-04-26T07:41:23.914Z,5.43
2023-04-26T07:44:27.239Z,5.37
2023-04-26T07:47:31.892Z,4.67
2023-04-26T07:50:36.353Z,4.97
2023-04-26T07:53:39.674Z,4.37
2023-04-26T07:56:42.743Z,4.63
2023-04-26T07:59:46.015Z,5.33
2023-04-26T08:02:49.384Z,4.10
2023-04-26T08:05:54.054Z,4.80
2023-04-26T08:08:57.301Z,4.67
2023-04-26T08:12:00.418Z,5.33
2023-04-26T08:15:04.680Z,4.90
2023-04-26T08:18:08.531Z,5.10
2023-04-26T08:21:15.139Z,4.57
2023-04-26T08:24:18.617Z,4.03
2023-04-26T08:27:22.133Z,4.67
2023-04-26T08:30:25.530Z,4.80
2023-04-26T08:33:28.731Z,4.20
2023-04-26T08:36:37.214Z,4.80
2023-04-26T08:39:41.616Z,3.93
2023-04-26T08:42:44.867Z,4.87
2023-04-26T08:45:48.412Z,4.53
2023-04-26T08:49:02.304Z,5.03
2023-04-26T08:52:12.318Z,5.00
2023-04-26T08:55:21.949Z,4.70
2023-04-26T08:58:25.948Z,4.93
2023-04-26T09:01:31.768Z,4.70
2023-04-26T09:04:36.264Z,4.47
2023-04-26T09:07:44.632Z,4.97
2023-04-26T09:10:48.191Z,4.50
2023-04-26T09:13:51.572Z,4.10
2023-04-26T09:16:55.677Z,4.80
2023-04-26T09:20:02.123Z,3.73
2023-04-26T09:23:09.012Z,4.17
2023-04-26T09:26:20.987Z,4.17
2023-04-26T09:29:24.253Z,3.90
2023-04-26T09:32:29.186Z,4.27
2023-04-26T09:35:35.501Z,4.53
2023-04-26T09:38:44.615Z,4.30
2023-04-26T09:41:47.737Z,3.90
2023-04-26T09:44:51.832Z,3.60
2023-04-26T09:47:55.185Z,3.87
2023-04-26T09:50:59.893Z,4.07
2023-04-26T09:54:04.594Z,3.97
2023-04-26T09:57:07.975Z,3.63
2023-04-26T10:00:14.036Z,3.73
2023-04-26T10:03:19.223Z,3.50
2023-04-26T10:06:22.425Z,4.20
2023-04-26T10:09:27.856Z,3.87
2023-04-26T10:12:30.881Z,4.30
2023-04-26T10:15:34.679Z,3.97
2023-04-26T10:18:38.286Z,4.30
2023-04-26T10:21:44.392Z,4.00
2023-04-26T10:24:50.617Z,3.73
2023-04-26T10:27:54.333Z,3.73
2023-04-26T10:30:58.768Z,4.47
2023-04-26T10:34:21.562Z,3.90
2023-04-26T10:37:24.628Z,3.77
2023-04-26T10:40:33.203Z,4.30
2023-04-26T10:43:36.333Z,4.73
2023-04-26T10:46:43.318Z,4.00
2023-04-26T10:49:48.371Z,4.33
2023-04-26T10:53:07.058Z,5.20
2023-04-26T10:56:11.436Z,4.50
2023-04-26T10:59:36.199Z,4.67
2023-04-26T11:02:48.318Z,4.47
2023-04-26T11:05:55.509Z,5.27
2023-04-26T11:09:01.286Z,4.33
2023-04-26T11:12:08.961Z,4.30
2023-04-26T11:15:14.185Z,4.50
2023-04-26T11:18:20.828Z,3.90
2023-04-26T11:21:23.944Z,5.60
2023-04-26T11:24:27.545Z,4.83
2023-04-26T11:27:31.948Z,4.90
2023-04-26T11:30:35.215Z,4.93
2023-04-26T11:33:41.485Z,4.27
2023-04-26T11:36:46.411Z,4.70
2023-04-26T11:39:51.260Z,4.50
2023-04-26T11:42:55.638Z,5.33
2023-04-26T11:46:01.394Z,4.57
2023-04-26T11:49:04.785Z,4.90
2023-04-26T11:52:09.712Z,4.77
2023-04-26T11:55:12.817Z,5.17
2023-04-26T11:58:17.447Z,5.60
2023-04-26T12:01:24.952Z,5.70
2023-04-26T12:04:39.892Z,5.40
2023-04-26T12:07:43.085Z,4.93
2023-04-26T12:10:48.254Z,4.87
2023-04-26T12:13:52.654Z,4.90
2023-04-26T12:16:56.292Z,4.70
2023-04-26T12:19:59.396Z,5.00
2023-04-26T12:23:06.540Z,5.03
2023-04-26T12:26:11.955Z,4.97
2023-04-26T12:29:16.683Z,4.30
2023-04-26T12:32:22.457Z,4.27
2023-04-26T12:35:26.812Z,5.47
2023-04-26T12:38:29.876Z,4.53
2023-04-26T12:41:32.837Z,4.77
2023-04-26T12:44:37.566Z,4.13
2023-04-26T12:47:41.272Z,4.70
2023-04-26T12:50:45.845Z,5.10
2023-04-26T12:53:48.917Z,5.10
2023-04-26T12:56:52.229Z,4.93
2023-04-26T12:59:56.973Z,4.40
2023-04-26T13:03:00.542Z,4.77
2023-04-26T13:06:04.723Z,5.33
2023-04-26T13:09:09.717Z,4.93
2023-04-26T13:12:14.173Z,4.90
2023-04-26T13:15:18.596Z,4.90
2023-04-26T13:18:22.421Z,4.87
2023-04-26T13:21:25.658Z,5.17
2023-04-26T13:24:29.063Z,4.70
2023-04-26T13:27:34.889Z,5.10
2023-04-26T13:30:44.427Z,4.90
2023-04-26T13:33:49.254Z,4.53
2023-04-26T13:36:53.517Z,5.10
2023-04-26T13:39:56.526Z,4.67
2023-04-26T13:42:59.839Z,4.77
2023-04-26T13:46:04.506Z,4.20
2023-04-26T13:49:08.254Z,4.43
2023-04-26T13:52:19.761Z,4.57
2023-04-26T13:55:23.028Z,4.57
2023-04-26T13:58:26.212Z,4.07
2023-04-26T14:01:35.075Z,4.90
2023-04-26T14:04:39.187Z,4.70
2023-04-26T14:07:42.508Z,5.17
2023-04-26T14:10:45.816Z,4.63
2023-04-26T14:13:50.773Z,4.47
2023-04-26T14:16:56.238Z,5.07
2023-04-26T14:19:59.513Z,4.33
2023-04-26T14:23:03.500Z,4.73
2023-04-26T14:26:08.480Z,4.67
2023-04-26T14:29:11.739Z,4.20
2023-04-26T14:32:16.420Z,4.40
2023-04-26T14:35:19.635Z,4.60
2023-04-26T14:38:25.888Z,4.10
2023-04-26T14:41:29.439Z,4.97
2023-04-26T14:44:32.746Z,4.67
2023-04-26T14:47:37.704Z,4.27
2023-04-26T14:50:41.790Z,5.20
2023-04-26T14:53:47.960Z,4.80
2023-04-26T14:56:59.473Z,5.13
2023-04-26T15:00:48.120Z,5.23
2023-04-26T15:04:31.690Z,5.13
2023-04-26T15:07:41.265Z,5.47
2023-04-26T15:10:44.281Z,4.87
2023-04-26T15:13:47.365Z,4.33
2023-04-26T15:16:50.449Z,4.30
2023-04-26T15:19:57.565Z,4.13
2023-04-26T15:23:00.621Z,4.93
2023-04-26T15:26:04.559Z,4.50
2023-04-26T15:29:08.797Z,5.27
2023-04-26T15:32:12.014Z,4.70
2023-04-26T15:35:17.043Z,4.00
2023-04-26T15:38:20.877Z,4.30
2023-04-26T15:41:24.153Z,4.60
2023-04-26T15:44:28.045Z,4.40
2023-04-26T15:47:31.835Z,4.87
2023-04-26T15:50:37.680Z,4.70
2023-04-26T15:53:44.018Z,4.97
2023-04-26T15:56:47.327Z,4.10
2023-04-26T15:59:51.064Z,4.40
2023-04-26T16:02:54.468Z,4.50
2023-04-26T16:05:58.876Z,4.20
2023-04-26T16:09:20.844Z,5.03
2023-04-26T16:12:27.803Z,4.80
2023-04-26T16:15:33.618Z,4.67
2023-04-26T16:18:40.032Z,5.27
2023-04-26T16:21:44.413Z,4.30
2023-04-26T16:24:47.442Z,4.90
2023-04-26T16:27:50.802Z,4.40
2023-04-26T16:30:54.287Z,3.70
2023-04-26T16:33:57.324Z,4.40
2023-04-26T16:37:01.864Z,4.40
2023-04-26T16:40:10.377Z,4.17
2023-04-26T16:43:14.399Z,5.03
2023-04-26T16:46:17.480Z,5.00
2023-04-26T16:49:21.256Z,4.77
2023-04-26T16:52:26.045Z,5.30
2023-04-26T16:55:29.136Z,4.63
2023-04-26T16:58:32.434Z,5.33
2023-04-26T17:01:35.582Z,4.73
2023-04-26T17:04:38.800Z,4.40
2023-04-26T17:07:43.333Z,5.07
2023-04-26T17:10:47.855Z,4.90
2023-04-26T17:13:52.863Z,4.93
2023-04-26T17:16:56.486Z,5.10
2023-04-26T17:19:59.950Z,5.07
2023-04-26T17:23:09.649Z,4.60
2023-04-26T17:26:12.737Z,4.63
2023-04-26T17:29:15.859Z,4.90
2023-04-26T17:32:19.264Z,3.80
2023-04-26T17:35:22.517Z,4.57
2023-04-26T17:38:27.028Z,4.67
2023-04-26T17:41:31.102Z,4.27
2023-04-26T17:44:34.667Z,4.40
2023-04-26T17:47:38.090Z,5.13
2023-04-26T17:50:41.253Z,4.70
2023-04-26T17:53:45.916Z,4.90
2023-04-26T17:56:51.415Z,5.20
2023-04-26T17:59:54.417Z,4.53
2023-04-26T18:02:57.990Z,4.23
2023-04-26T18:06:03.898Z,3.90
2023-04-26T18:09:09.271Z,4.17
2023-04-26T18:12:12.283Z,4.70
2023-04-26T18:15:15.618Z,4.57
2023-04-26T18:18:29.453Z,4.67
2023-04-26T18:21:58.572Z,5.90
2023-04-26T18:25:03.996Z,5.53
2023-04-26T18:28:12.877Z,5.40
2023-04-26T18:31:16.684Z,5.43
2023-04-26T18:34:20.526Z,4.77
2023-04-26T18:37:26.826Z,5.93
2023-04-26T18:40:34.095Z,5.63
2023-04-26T18:43:37.945Z,4.83
2023-04-26T18:46:49.302Z,5.27
2023-04-26T18:49:59.724Z,5.27
2023-04-26T18:53:33.029Z,5.60
2023-04-26T18:56:50.094Z,6.73
2023-04-26T18:59:57.338Z,5.17
2023-04-26T19:03:02.914Z,5.13
2023-04-26T19:06:10.401Z,4.40
2023-04-26T19:09:13.836Z,5.07
2023-04-26T19:12:18.537Z,5.53
2023-04-26T19:15:24.074Z,5.30
2023-04-26T19:18:27.723Z,6.43
2023-04-26T19:21:31.418Z,5.23
2023-04-26T19:24:34.448Z,5.50
2023-04-26T19:27:39.025Z,5.47
2023-04-26T19:30:42.933Z,5.07
2023-04-26T19:33:48.713Z,5.20
2023-04-26T19:36:52.848Z,5.10
2023-04-26T19:39:56.027Z,5.60
2023-04-26T19:43:00.760Z,6.13
2023-04-26T19:46:14.787Z,6.20
2023-04-26T19:49:18.644Z,6.23
2023-04-26T19:52:26.231Z,5.57
2023-04-26T19:55:49.920Z,4.93
2023-04-26T20:03:02.629Z,5.60
2023-04-26T20:06:17.158Z,4.93
2023-04-26T20:09:20.848Z,5.13
2023-04-26T20:12:24.141Z,5.53
2023-04-26T20:15:32.258Z,5.03
2023-04-26T20:18:39.315Z,5.53
2023-04-26T20:21:45.266Z,6.43
2023-04-26T20:24:48.416Z,5.37
2023-04-26T20:27:51.487Z,5.17
2023-04-26T20:30:56.212Z,5.70
2023-04-26T20:34:00.671Z,6.17
2023-04-26T20:37:04.018Z,5.77
2023-04-26T20:40:09.313Z,7.27
2023-04-26T20:43:14.077Z,6.50
2023-04-26T20:46:18.494Z,5.20
2023-04-26T20:49:22.117Z,7.03
2023-04-26T20:52:25.175Z,6.83
2023-04-26T20:55:34.043Z,6.10
2023-04-26T20:58:42.178Z,5.97
2023-04-26T21:01:47.035Z,5.97
2023-04-26T21:04:50.233Z,6.67
2023-04-26T21:07:56.538Z,5.37
2023-04-26T21:10:59.532Z,5.57
2023-04-26T21:14:10.958Z,4.80
2023-04-26T21:17:15.655Z,4.87
2023-04-26T21:20:18.946Z,5.60
2023-04-26T21:23:21.971Z,5.00
2023-04-26T21:26:25.082Z,4.83
2023-04-26T21:29:31.977Z,4.97
2023-04-26T21:32:37.692Z,5.03
2023-04-26T21:35:43.843Z,4.83
2023-04-26T21:38:48.313Z,5.13
2023-04-26T21:41:51.436Z,5.90
2023-04-26T21:44:54.465Z,5.50
2023-04-26T21:47:58.806Z,5.70
2023-04-26T21:51:02.037Z,5.90
2023-04-26T21:54:05.126Z,6.40
2023-04-26T21:57:09.339Z,6.33
2023-04-26T22:00:13.551Z,6.97
2023-04-26T22:03:21.782Z,6.50
2023-04-26T22:06:25.060Z,6.23
2023-04-26T22:09:28.767Z,5.90
2023-04-26T22:12:34.660Z,6.10
2023-04-26T22:15:37.969Z,5.97
2023-04-26T22:18:46.361Z,6.50
2023-04-26T22:21:49.343Z,5.80
2023-04-26T22:24:52.409Z,5.37
2023-04-26T22:27:58.495Z,5.63
2023-04-26T22:31:04.069Z,5.40
2023-04-26T22:34:11.750Z,5.90
2023-04-26T22:37:26.591Z,5.10
2023-04-26T22:40:29.902Z,5.77
2023-04-26T22:43:36.010Z,5.43
2023-04-26T22:46:41.236Z,5.13
2023-04-26T22:49:45.613Z,4.67
2023-04-26T22:52:52.457Z,5.03
2023-04-26T22:55:55.604Z,5.10
2023-04-26T22:59:00.371Z,4.83
2023-04-26T23:02:03.953Z,5.17
2023-04-26T23:05:11.583Z,4.80
2023-04-26T23:08:21.343Z,4.90
2023-04-26T23:11:24.446Z,5.17
2023-04-26T23:14:37.871Z,4.33
2023-04-26T23:17:51.525Z,4.73
2023-04-26T23:21:01.316Z,4.53
2023-04-26T23:24:08.232Z,4.80
2023-04-26T23:27:15.185Z,5.63
2023-04-26T23:30:18.937Z,4.10
2023-04-26T23:33:31.809Z,4.77
2023-04-26T23:36:52.953Z,4.50
2023-04-26T23:39:56.717Z,4.57
2023-04-26T23:43:06.400Z,4.63
2023-04-26T23:46:09.767Z,4.63
2023-04-26T23:49:13.367Z,5.00
2023-04-26T23:52:20.245Z,4.03
2023-04-26T23:55:23.900Z,4.57
2023-04-26T23:58:31.178Z,5.37
